createdAt,value
2023-04-13T00:02:01.860Z,5.80
2023-04-13T00:04:34.276Z,5.80
2023-04-13T00:07:16.986Z,5.80
2023-04-13T00:09:50.750Z,5.80
2023-04-13T00:12:26.272Z,5.80
2023-04-13T00:14:58.103Z,5.90
2023-04-13T00:17:30.127Z,5.90
2023-04-13T00:20:08.425Z,5.90
2023-04-13T00:22:44.334Z,5.90
2023-04-13T00:25:16.685Z,5.90
2023-04-13T00:27:49.925Z,5.90
2023-04-13T00:30:22.360Z,5.90
2023-04-13T00:32:54.127Z,5.90
2023-04-13T00:35:28.309Z,5.90
2023-04-13T00:38:03.127Z,5.90
2023-04-13T00:40:37.984Z,5.90
2023-04-13T00:43:09.879Z,6.00
2023-04-13T00:45:41.691Z,6.00
2023-04-13T00:48:13.667Z,6.00
2023-04-13T00:50:45.525Z,6.00
2023-04-13T00:53:17.345Z,5.90
2023-04-13T00:55:49.324Z,5.90
2023-04-13T00:58:21.719Z,5.90
2023-04-13T01:00:55.914Z,5.90
2023-04-13T01:03:30.069Z,5.80
2023-04-13T01:06:13.659Z,5.70
2023-04-13T01:08:48.169Z,5.70
2023-04-13T01:11:26.860Z,5.70
2023-04-13T01:14:09.410Z,5.60
2023-04-13T01:16:49.199Z,5.60
2023-04-13T01:19:33.693Z,5.60
2023-04-13T01:22:06.105Z,5.60
2023-04-13T01:24:48.266Z,5.70
2023-04-13T01:27:42.374Z,5.70
2023-04-13T01:30:15.026Z,5.70
2023-04-13T01:32:49.974Z,5.60
2023-04-13T01:35:22.833Z,5.60
2023-04-13T01:37:55.782Z,5.60
2023-04-13T01:40:29.655Z,5.50
2023-04-13T01:43:04.041Z,5.60
2023-04-13T01:45:38.530Z,5.50
2023-04-13T01:48:14.042Z,5.60
2023-04-13T01:50:48.440Z,5.60
2023-04-13T01:53:22.834Z,5.50
2023-04-13T01:55:55.786Z,5.50
2023-04-13T01:58:28.321Z,5.60
2023-04-13T02:01:00.342Z,5.50
2023-04-13T02:03:32.322Z,5.50
2023-04-13T02:06:04.948Z,5.40
2023-04-13T02:08:40.511Z,5.40
2023-04-13T02:11:12.742Z,5.30
2023-04-13T02:13:47.452Z,5.30
2023-04-13T02:16:19.289Z,5.30
2023-04-13T02:18:51.396Z,5.30
2023-04-13T02:21:23.165Z,5.30
2023-04-13T02:23:55.042Z,5.30
2023-04-13T02:26:29.149Z,5.30
2023-04-13T02:29:01.267Z,5.30
2023-04-13T02:31:33.870Z,5.30
2023-04-13T02:34:06.335Z,5.40
2023-04-13T02:36:39.356Z,5.40
2023-04-13T02:39:13.439Z,5.50
2023-04-13T02:41:45.192Z,5.50
2023-04-13T02:44:17.009Z,5.50
2023-04-13T02:46:48.750Z,5.50
2023-04-13T02:49:20.572Z,5.50
2023-04-13T02:51:52.348Z,5.60
2023-04-13T02:54:24.598Z,5.60
2023-04-13T02:56:56.442Z,5.60
2023-04-13T02:59:31.123Z,5.60
2023-04-13T03:02:02.944Z,5.70
2023-04-13T03:04:34.845Z,5.70
2023-04-13T03:07:14.576Z,5.70
2023-04-13T03:09:47.538Z,5.70
2023-04-13T03:12:20.276Z,5.80
2023-04-13T03:14:52.124Z,5.80
2023-04-13T03:17:23.914Z,5.80
2023-04-13T03:19:56.657Z,5.90
2023-04-13T03:22:30.679Z,5.90
2023-04-13T03:25:03.041Z,5.90
2023-04-13T03:27:36.892Z,6.00
2023-04-13T03:30:09.057Z,6.00
2023-04-13T03:32:40.898Z,6.00
2023-04-13T03:35:12.720Z,6.10
2023-04-13T03:37:47.984Z,6.10
2023-04-13T03:40:19.831Z,6.10
2023-04-13T03:42:51.764Z,6.20
2023-04-13T03:45:23.558Z,6.20
2023-04-13T03:47:55.506Z,6.20
2023-04-13T03:50:32.640Z,6.30
2023-04-13T03:53:04.393Z,6.30
2023-04-13T03:55:36.623Z,6.30
2023-04-13T03:58:08.525Z,6.40
2023-04-13T04:00:40.560Z,6.40
2023-04-13T04:03:12.415Z,6.40
2023-04-13T04:05:44.307Z,6.40
2023-04-13T04:08:16.136Z,6.40
2023-04-13T04:10:48.078Z,6.30
2023-04-13T04:13:19.900Z,6.30
2023-04-13T04:15:52.083Z,6.20
2023-04-13T04:18:27.866Z,6.20
2023-04-13T04:20:59.680Z,6.10
2023-04-13T04:23:34.615Z,6.10
2023-04-13T04:26:06.699Z,6.10
2023-04-13T04:28:39.073Z,6.10
2023-04-13T04:31:11.086Z,6.10
2023-04-13T04:33:42.967Z,6.20
2023-04-13T04:36:16.419Z,6.30
2023-04-13T04:38:49.793Z,6.30
2023-04-13T04:41:21.784Z,6.40
2023-04-13T04:43:56.870Z,6.50
2023-04-13T04:46:29.841Z,6.60
2023-04-13T04:49:03.781Z,6.70
2023-04-13T04:51:36.805Z,6.70
2023-04-13T04:54:08.551Z,6.80
2023-04-13T04:56:40.400Z,6.90
2023-04-13T04:59:12.145Z,6.90
2023-04-13T05:01:44.172Z,7.00
2023-04-13T05:04:16.067Z,7.10
2023-04-13T05:06:48.410Z,7.20
2023-04-13T05:09:20.715Z,7.30
2023-04-13T05:11:52.573Z,7.40
2023-04-13T05:14:24.434Z,7.50
2023-04-13T05:16:56.306Z,7.60
2023-04-13T05:19:28.164Z,7.80
2023-04-13T05:22:01.543Z,8.00
2023-04-13T05:24:36.165Z,8.10
2023-04-13T05:27:09.863Z,8.20
2023-04-13T05:29:41.861Z,8.20
2023-04-13T05:32:13.701Z,8.20
2023-04-13T05:34:45.649Z,8.20
2023-04-13T05:37:17.625Z,8.20
2023-04-13T05:39:50.188Z,8.30
2023-04-13T05:42:21.986Z,8.40
2023-04-13T05:44:53.804Z,8.50
2023-04-13T05:47:25.793Z,8.50
2023-04-13T05:50:00.488Z,8.60
2023-04-13T05:52:32.296Z,8.70
2023-04-13T05:55:04.235Z,8.90
2023-04-13T05:57:36.285Z,9.00
2023-04-13T06:00:10.429Z,9.00
2023-04-13T06:02:43.561Z,9.10
2023-04-13T06:05:15.965Z,9.20
2023-04-13T06:07:48.134Z,9.20
2023-04-13T06:10:22.313Z,9.30
2023-04-13T06:12:54.404Z,9.30
2023-04-13T06:15:26.266Z,9.40
2023-04-13T06:17:58.117Z,9.50
2023-04-13T06:20:31.806Z,9.60
2023-04-13T06:23:03.596Z,9.70
2023-04-13T06:25:35.896Z,9.90
2023-04-13T06:28:10.134Z,10.10
2023-04-13T06:30:42.283Z,10.30
2023-04-13T06:33:15.444Z,10.60
2023-04-13T06:35:47.227Z,11.30
2023-04-13T06:38:19.121Z,12.30
2023-04-13T06:40:50.968Z,13.50
2023-04-13T06:43:29.541Z,14.50
2023-04-13T06:46:02.421Z,15.30
2023-04-13T06:48:34.308Z,16.70
2023-04-13T06:51:08.524Z,17.50
2023-04-13T06:53:41.447Z,18.30
2023-04-13T06:56:13.201Z,19.20
2023-04-13T06:58:45.431Z,20.30
2023-04-13T07:01:17.572Z,21.20
2023-04-13T07:03:51.896Z,21.30
2023-04-13T07:06:23.695Z,22.00
2023-04-13T07:08:55.529Z,22.40
2023-04-13T07:11:29.450Z,23.20
2023-04-13T07:14:01.334Z,23.70
2023-04-13T07:16:33.169Z,23.80
2023-04-13T07:19:05.152Z,24.10
2023-04-13T07:21:40.270Z,24.50
2023-04-13T07:24:12.086Z,24.50
2023-04-13T07:26:43.846Z,24.10
2023-04-13T07:29:16.343Z,24.20
2023-04-13T07:31:48.204Z,24.10
2023-04-13T07:34:20.138Z,23.30
2023-04-13T07:36:51.949Z,23.20
2023-04-13T07:39:23.798Z,23.00
2023-04-13T07:41:57.234Z,22.20
2023-04-13T07:44:29.041Z,21.40
2023-04-13T07:47:03.024Z,21.10
2023-04-13T07:49:36.572Z,21.00
2023-04-13T07:52:08.373Z,20.00
2023-04-13T07:54:40.222Z,19.00
2023-04-13T07:57:11.977Z,18.50
2023-04-13T07:59:43.819Z,17.90
2023-04-13T08:02:17.263Z,17.40
2023-04-13T08:04:49.447Z,17.10
2023-04-13T08:07:23.112Z,16.80
2023-04-13T08:09:55.265Z,16.40
2023-04-13T08:12:27.010Z,15.90
2023-04-13T08:14:58.884Z,15.70
2023-04-13T08:17:34.067Z,15.70
2023-04-13T08:20:08.994Z,15.70
2023-04-13T08:22:40.799Z,15.70
2023-04-13T08:25:12.658Z,15.60
2023-04-13T08:27:44.769Z,15.40
2023-04-13T08:30:16.635Z,15.40
2023-04-13T08:32:48.891Z,15.50
2023-04-13T08:35:20.952Z,15.50
2023-04-13T08:37:53.983Z,15.70
2023-04-13T08:40:26.700Z,15.70
2023-04-13T08:43:00.430Z,15.80
2023-04-13T08:45:32.538Z,15.80
2023-04-13T08:48:04.375Z,15.80
2023-04-13T08:50:36.582Z,15.80
2023-04-13T08:53:09.289Z,15.80
2023-04-13T08:55:43.593Z,15.80
2023-04-13T08:58:20.643Z,16.00
2023-04-13T09:00:52.514Z,15.90
2023-04-13T09:03:25.103Z,15.70
2023-04-13T09:06:00.079Z,15.80
2023-04-13T09:08:37.815Z,15.90
2023-04-13T09:11:09.890Z,15.90
2023-04-13T09:13:48.314Z,15.60
2023-04-13T09:16:20.180Z,15.50
2023-04-13T09:18:52.798Z,15.70
2023-04-13T09:21:35.860Z,15.80
2023-04-13T09:24:08.383Z,15.90
2023-04-13T09:26:42.026Z,15.60
2023-04-13T09:29:14.926Z,15.60
2023-04-13T09:31:47.587Z,15.70
2023-04-13T09:34:28.891Z,15.80
2023-04-13T09:37:11.531Z,15.90
2023-04-13T09:39:43.303Z,15.90
2023-04-13T09:42:18.282Z,15.80
2023-04-13T09:44:57.862Z,15.90
2023-04-13T09:47:37.706Z,15.80
2023-04-13T09:50:22.104Z,15.90
2023-04-13T09:53:04.615Z,15.90
2023-04-13T09:55:39.352Z,15.90
2023-04-13T09:58:12.190Z,16.00
2023-04-13T10:00:45.645Z,16.20
2023-04-13T10:03:19.174Z,16.30
2023-04-13T10:05:59.674Z,16.20
2023-04-13T10:08:38.075Z,16.30
2023-04-13T10:11:14.734Z,16.20
2023-04-13T10:13:52.200Z,15.90
2023-04-13T10:16:27.224Z,15.80
2023-04-13T10:19:10.098Z,15.70
2023-04-13T10:21:43.677Z,15.70
2023-04-13T10:24:19.505Z,15.60
2023-04-13T10:26:53.317Z,15.50
2023-04-13T10:29:29.168Z,15.60
2023-04-13T10:32:03.954Z,15.50
2023-04-13T10:34:38.286Z,15.40
2023-04-13T10:37:18.869Z,15.50
2023-04-13T10:40:01.507Z,15.50
2023-04-13T10:45:20.544Z,15.30
2023-04-13T10:47:53.226Z,15.20
2023-04-13T10:50:27.664Z,15.20
2023-04-13T10:53:07.588Z,15.40
2023-04-13T10:55:39.396Z,15.50
2023-04-13T10:58:17.613Z,15.50
2023-04-13T11:00:50.987Z,15.50
2023-04-13T11:03:26.649Z,15.60
2023-04-13T11:05:59.597Z,15.40
2023-04-13T11:08:32.849Z,15.50
2023-04-13T11:11:05.187Z,15.60
2023-04-13T11:13:43.688Z,15.60
2023-04-13T11:16:15.704Z,15.60
2023-04-13T11:18:47.558Z,15.70
2023-04-13T11:21:19.403Z,15.70
2023-04-13T11:23:51.831Z,15.70
2023-04-13T11:26:34.307Z,15.80
2023-04-13T11:29:06.245Z,15.80
2023-04-13T11:31:39.267Z,15.80
2023-04-13T11:34:14.143Z,15.70
2023-04-13T11:36:49.044Z,15.60
2023-04-13T11:39:21.564Z,15.50
2023-04-13T11:41:53.339Z,15.40
2023-04-13T11:44:25.281Z,15.40
2023-04-13T11:46:57.445Z,15.40
2023-04-13T11:49:29.812Z,15.40
2023-04-13T11:52:02.347Z,15.40
2023-04-13T11:54:34.213Z,15.60
2023-04-13T11:57:06.407Z,15.60
2023-04-13T11:59:38.748Z,15.80
2023-04-13T12:02:22.080Z,15.90
2023-04-13T12:04:55.706Z,16.00
2023-04-13T12:07:31.362Z,16.00
2023-04-13T12:10:06.401Z,16.00
2023-04-13T12:18:02.343Z,16.00
2023-04-13T12:20:39.003Z,15.80
2023-04-13T12:26:18.840Z,15.90
2023-04-13T12:28:57.560Z,15.90
2023-04-13T12:31:36.868Z,16.10
2023-04-13T12:34:08.890Z,16.20
2023-04-13T12:36:43.049Z,16.00
2023-04-13T12:39:15.513Z,16.20
2023-04-13T12:41:49.689Z,16.30
2023-04-13T12:44:21.589Z,16.40
2023-04-13T12:46:53.450Z,16.10
2023-04-13T12:49:25.906Z,16.00
2023-04-13T12:51:57.749Z,16.10
2023-04-13T12:54:30.942Z,16.10
2023-04-13T12:57:03.484Z,16.10
2023-04-13T12:59:35.320Z,16.30
2023-04-13T13:02:07.219Z,16.50
2023-04-13T13:04:39.183Z,16.50
2023-04-13T13:07:11.164Z,16.50
2023-04-13T13:09:43.353Z,16.40
2023-04-13T13:12:15.211Z,16.40
2023-04-13T13:14:47.097Z,16.30
2023-04-13T13:17:18.989Z,16.20
2023-04-13T13:19:50.910Z,16.30
2023-04-13T13:22:22.809Z,16.10
2023-04-13T13:24:54.588Z,16.00
2023-04-13T13:30:03.549Z,15.60
2023-04-13T13:32:37.812Z,15.50
2023-04-13T13:35:10.712Z,15.40
2023-04-13T13:37:44.870Z,15.30
2023-04-13T13:40:16.768Z,15.40
2023-04-13T13:42:52.568Z,15.50
2023-04-13T13:45:24.995Z,15.40
2023-04-13T13:47:58.246Z,15.30
2023-04-13T13:50:30.206Z,15.20
2023-04-13T13:53:04.219Z,15.00
2023-04-13T13:55:36.681Z,15.10
2023-04-13T13:58:08.489Z,14.90
2023-04-13T14:00:42.720Z,14.90
2023-04-13T14:03:15.367Z,15.00
2023-04-13T14:05:47.418Z,14.90
2023-04-13T14:08:19.235Z,14.80
2023-04-13T14:10:51.310Z,15.00
2023-04-13T14:13:23.413Z,15.10
2023-04-13T14:15:55.847Z,15.10
2023-04-13T14:18:27.709Z,15.20
2023-04-13T14:20:59.566Z,15.30
2023-04-13T14:23:32.132Z,15.40
2023-04-13T14:26:04.155Z,15.30
2023-04-13T14:28:36.873Z,15.10
2023-04-13T14:31:08.734Z,15.00
2023-04-13T14:33:42.236Z,14.90
2023-04-13T14:36:15.542Z,14.70
2023-04-13T14:46:35.964Z,15.10
2023-04-13T14:49:07.866Z,14.90
2023-04-13T14:51:40.107Z,14.70
2023-04-13T14:54:11.924Z,14.70
2023-04-13T14:56:43.809Z,14.60
2023-04-13T14:59:16.053Z,14.50
2023-04-13T15:01:50.317Z,14.60
2023-04-13T15:04:22.304Z,14.80
2023-04-13T15:06:54.531Z,15.00
2023-04-13T15:09:27.410Z,14.90
2023-04-13T15:11:59.276Z,14.80
2023-04-13T15:14:31.652Z,14.50
2023-04-13T15:17:04.734Z,14.30
2023-04-13T15:19:38.956Z,14.10
2023-04-13T15:22:10.843Z,14.00
2023-04-13T15:24:42.648Z,13.70
2023-04-13T15:27:14.556Z,13.60
2023-04-13T15:29:46.417Z,13.50
2023-04-13T15:32:19.669Z,13.50
2023-04-13T15:34:53.902Z,13.50
2023-04-13T15:37:25.762Z,13.40
2023-04-13T15:39:57.823Z,13.40
2023-04-13T15:42:29.694Z,13.20
2023-04-13T15:45:01.713Z,13.20
2023-04-13T15:47:36.154Z,13.10
2023-04-13T15:50:08.555Z,13.10
2023-04-13T15:52:40.410Z,13.10
2023-04-13T15:55:12.270Z,13.20
2023-04-13T15:57:44.165Z,13.20
2023-04-13T16:00:16.601Z,13.20
2023-04-13T16:02:48.559Z,13.30
2023-04-13T16:05:22.790Z,13.30
2023-04-13T16:07:55.062Z,13.40
2023-04-13T16:10:27.173Z,13.40
2023-04-13T16:12:59.029Z,13.40
2023-04-13T16:15:30.870Z,13.40
2023-04-13T16:18:02.918Z,13.50
2023-04-13T16:20:36.026Z,13.50
2023-04-13T16:23:07.860Z,13.40
2023-04-13T16:25:39.692Z,13.30
2023-04-13T16:28:11.724Z,13.30
2023-04-13T16:30:43.489Z,13.20
2023-04-13T16:33:15.654Z,13.20
2023-04-13T16:35:47.563Z,13.20
2023-04-13T16:38:19.378Z,13.20
2023-04-13T16:40:51.183Z,13.20
2023-04-13T16:43:23.166Z,13.10
2023-04-13T16:45:55.011Z,13.00
2023-04-13T16:48:28.887Z,12.90
2023-04-13T16:51:01.673Z,12.80
2023-04-13T16:53:33.487Z,12.70
2023-04-13T16:56:05.372Z,12.70
2023-04-13T16:58:37.633Z,12.60
2023-04-13T17:01:09.480Z,12.60
2023-04-13T17:03:41.367Z,12.50
2023-04-13T17:06:13.222Z,12.40
2023-04-13T17:11:35.636Z,12.20
2023-04-13T17:14:10.769Z,12.20
2023-04-13T17:16:50.420Z,12.10
2023-04-13T17:19:26.205Z,12.00
2023-04-13T17:22:02.488Z,11.90
2023-04-13T17:24:49.031Z,11.80
2023-04-13T17:27:21.142Z,11.70
2023-04-13T17:29:54.740Z,11.60
2023-04-13T17:32:34.303Z,11.50
2023-04-13T17:35:13.609Z,11.50
2023-04-13T17:37:56.064Z,11.40
2023-04-13T17:40:29.824Z,11.30
2023-04-13T17:43:10.261Z,11.30
2023-04-13T17:45:47.758Z,11.20
2023-04-13T17:48:27.532Z,11.10
2023-04-13T17:53:59.527Z,11.00
2023-04-13T17:56:35.826Z,11.00
2023-04-13T17:59:17.287Z,10.80
2023-04-13T18:01:59.065Z,10.80
2023-04-13T18:04:45.629Z,10.80
2023-04-13T18:07:24.387Z,10.70
2023-04-13T18:10:02.864Z,10.60
2023-04-13T18:12:36.454Z,10.50
2023-04-13T18:15:29.353Z,10.30
2023-04-13T18:18:28.613Z,10.40
2023-04-13T18:21:21.813Z,10.40
2023-04-13T18:27:37.862Z,10.30
2023-04-13T18:30:10.165Z,10.20
2023-04-13T18:32:44.799Z,10.20
2023-04-13T18:38:18.725Z,10.10
2023-04-13T18:40:50.744Z,10.00
2023-04-13T18:43:24.912Z,10.00
2023-04-13T18:45:56.987Z,9.90
2023-04-13T18:48:29.008Z,9.90
2023-04-13T18:51:03.980Z,9.80
2023-04-13T18:53:56.987Z,9.80
2023-04-13T18:56:49.640Z,9.80
2023-04-13T19:00:09.584Z,9.70
2023-04-13T19:03:09.471Z,9.70
2023-04-13T19:05:53.701Z,9.60
2023-04-13T19:08:50.456Z,9.60
2023-04-13T19:14:49.585Z,9.50
2023-04-13T19:17:35.150Z,9.50
2023-04-13T19:20:15.667Z,9.40
2023-04-13T19:22:57.394Z,9.40
2023-04-13T19:25:46.030Z,9.40
2023-04-13T19:28:53.312Z,9.40
2023-04-13T19:31:41.412Z,9.30
2023-04-13T19:34:55.981Z,9.30
2023-04-13T19:37:44.617Z,9.20
2023-04-13T19:40:32.931Z,9.10
2023-04-13T19:43:54.788Z,9.10
2023-04-13T19:52:53.820Z,9.10
2023-04-13T19:55:37.333Z,9.10
2023-04-13T19:58:20.778Z,9.10
2023-04-13T20:01:08.052Z,9.10
2023-04-13T20:03:46.499Z,9.00
2023-04-13T20:06:22.073Z,9.00
2023-04-13T20:08:57.645Z,9.00
2023-04-13T20:11:30.591Z,8.90
2023-04-13T20:14:21.985Z,8.90
2023-04-13T20:17:08.083Z,8.90
2023-04-13T20:20:09.910Z,8.90
2023-04-13T20:22:51.852Z,8.90
2023-04-13T20:25:30.944Z,8.80
2023-04-13T20:28:25.859Z,8.80
2023-04-13T20:31:18.734Z,8.80
2023-04-13T20:33:54.317Z,8.80
2023-04-13T20:36:27.338Z,8.80
2023-04-13T20:39:02.900Z,8.80
2023-04-13T20:41:35.690Z,8.80
2023-04-13T20:44:30.301Z,8.90
2023-04-13T20:47:05.438Z,8.90
2023-04-13T20:49:39.708Z,8.90
2023-04-13T20:52:18.168Z,8.90
2023-04-13T20:54:53.676Z,8.90
2023-04-13T20:57:25.903Z,8.90
2023-04-13T20:59:58.631Z,8.90
2023-04-13T21:02:31.324Z,8.90
2023-04-13T21:05:03.371Z,8.90
2023-04-13T21:07:35.680Z,8.90
2023-04-13T21:10:08.809Z,8.90
2023-04-13T21:12:41.917Z,8.90
2023-04-13T21:15:14.750Z,8.90
2023-04-13T21:17:47.163Z,8.90
2023-04-13T21:20:19.355Z,8.90
2023-04-13T21:22:51.422Z,8.90
2023-04-13T21:25:23.565Z,8.90
2023-04-13T21:27:56.340Z,8.90
2023-04-13T21:30:28.322Z,8.90
2023-04-13T21:33:00.228Z,8.90
2023-04-13T21:35:32.074Z,8.90
2023-04-13T21:38:05.156Z,8.90
2023-04-13T21:40:37.047Z,8.90
2023-04-13T21:43:09.010Z,8.90
2023-04-13T21:45:40.891Z,8.90
2023-04-13T21:48:12.737Z,8.90
2023-04-13T21:50:44.857Z,8.80
2023-04-13T21:53:19.107Z,8.80
2023-04-13T21:55:50.974Z,8.80
2023-04-13T21:58:22.892Z,8.80
2023-04-13T22:00:54.765Z,8.90
2023-04-13T22:03:26.751Z,8.90
2023-04-13T22:05:58.621Z,8.90
2023-04-13T22:08:31.574Z,8.90
2023-04-13T22:11:06.591Z,8.90
2023-04-13T22:13:39.910Z,8.90
2023-04-13T22:16:12.945Z,8.90
2023-04-13T22:18:44.772Z,8.80
2023-04-13T22:21:16.599Z,8.80
2023-04-13T22:23:48.393Z,8.80
2023-04-13T22:26:20.461Z,8.70
2023-04-13T22:28:52.304Z,8.70
2023-04-13T22:31:24.239Z,8.70
2023-04-13T22:33:56.487Z,8.70
2023-04-13T22:36:28.396Z,8.60
2023-04-13T22:39:00.405Z,8.60
2023-04-13T22:41:32.358Z,8.50
2023-04-13T22:44:06.440Z,8.50
2023-04-13T22:46:38.312Z,8.50
2023-04-13T22:49:12.754Z,8.50
2023-04-13T22:51:44.782Z,8.50
2023-04-13T22:54:16.573Z,8.50
2023-04-13T22:56:48.475Z,8.60
2023-04-13T22:59:20.301Z,8.60
2023-04-13T23:04:42.498Z,8.60
2023-04-13T23:07:14.431Z,8.60
2023-04-13T23:09:46.255Z,8.60
2023-04-13T23:12:18.094Z,8.60
2023-04-13T23:14:52.081Z,8.60
2023-04-13T23:17:23.923Z,8.60
2023-04-13T23:19:56.284Z,8.70
2023-04-13T23:22:28.780Z,8.70
2023-04-13T23:25:00.880Z,8.70
2023-04-13T23:27:32.695Z,8.70
2023-04-13T23:30:04.725Z,8.70
2023-04-13T23:32:38.696Z,8.70
2023-04-13T23:35:10.679Z,8.70
2023-04-13T23:37:45.500Z,8.70
2023-04-13T23:40:19.738Z,8.80
2023-04-13T23:42:51.686Z,8.80
2023-04-13T23:45:25.045Z,8.70
2023-04-13T23:47:57.057Z,8.70
2023-04-13T23:50:28.974Z,8.70
2023-04-13T23:53:00.832Z,8.70
2023-04-13T23:55:35.250Z,8.70
2023-04-13T23:58:07.086Z,8.60
